Time;durP1;ratioP1;P1;durP2;ratioP2;P2;SDS_P1;SDS_P2;PMS_P1;PMS_P2;Temp;Humidity;BMP_temperature;BMP_pressure;BME280_temperature;BME280_humidity;BME280_pressure;Samples;Min_cycle;Max_cycle;Signal;HPM_P1;HPM_P2
2021/12/20 00:00:11;;;;;;;26.50;10.90;;;;;;;;;;5006965;28;20182;-76
2021/12/20 00:02:37;;;;;;;41.17;16.03;;;;;;;;;;5010051;28;20190;-75
2021/12/20 00:05:03;;;;;;;30.27;14.17;;;;;;;;;;5009261;28;20254;-75
2021/12/20 00:07:28;;;;;;;30.33;14.40;;;;;;;;;;5008741;28;20412;-76
2021/12/20 00:09:53;;;;;;;32.60;15.17;;;;;;;;;;5009087;28;20175;-75
2021/12/20 00:12:18;;;;;;;33.03;14.23;;;;;;;;;;5008523;28;20181;-75
2021/12/20 00:14:44;;;;;;;24.57;11.77;;;;;;;;;;5009154;28;20268;-75
2021/12/20 00:17:09;;;;;;;24.10;11.73;;;;;;;;;;5008429;28;20179;-75
2021/12/20 00:19:34;;;;;;;28.07;13.07;;;;;;;;;;5010577;28;20172;-75
2021/12/20 00:21:59;;;;;;;23.27;12.83;;;;;;;;;;5005960;28;20176;-75
2021/12/20 00:24:25;;;;;;;24.00;11.67;;;;;;;;;;5008762;28;20183;-76
2021/12/20 00:26:50;;;;;;;20.93;9.13;;;;;;;;;;5007670;28;20183;-76
2021/12/20 00:29:15;;;;;;;20.23;11.60;;;;;;;;;;5009499;28;20203;-76
2021/12/20 00:31:40;;;;;;;29.07;13.40;;;;;;;;;;5008232;28;20183;-76
2021/12/20 00:34:06;;;;;;;23.57;12.43;;;;;;;;;;5007627;28;20248;-75
2021/12/20 00:36:31;;;;;;;29.30;12.90;;;;;;;;;;5008880;28;20199;-76
2021/12/20 00:41:40;;;;;;;37.33;15.40;;;;;;;;;;5009762;28;20202;-76
2021/12/20 00:44:06;;;;;;;30.97;13.07;;;;;;;;;;5007483;28;20235;-75
2021/12/20 00:46:31;;;;;;;23.57;13.10;;;;;;;;;;5009074;28;20270;-75
2021/12/20 00:48:56;;;;;;;33.23;13.33;;;;;;;;;;5008330;28;20195;-75
2021/12/20 00:51:21;;;;;;;35.27;14.57;;;;;;;;;;5008237;28;20175;-76
2021/12/20 00:53:46;;;;;;;26.70;13.70;;;;;;;;;;5013584;28;20207;-76
2021/12/20 00:56:12;;;;;;;28.30;13.67;;;;;;;;;;5011794;28;20209;-76
2021/12/20 00:58:37;;;;;;;32.97;14.43;;;;;;;;;;5011887;28;20179;-75
2021/12/20 01:01:03;;;;;;;26.83;13.60;;;;;;;;;;5012848;28;20198;-75
2021/12/20 01:03:30;;;;;;;28.50;12.80;;;;;;;;;;5006679;28;20183;-76
2021/12/20 01:05:55;;;;;;;36.43;13.90;;;;;;;;;;5011804;28;20191;-76
2021/12/20 01:08:21;;;;;;;31.33;13.27;;;;;;;;;;5015026;28;20176;-75
2021/12/20 01:10:51;;;;;;;27.80;13.30;;;;;;;;;;5011911;28;20246;-75
2021/12/20 01:13:20;;;;;;;29.13;13.60;;;;;;;;;;5011735;28;20187;-76
2021/12/20 01:15:49;;;;;;;29.53;13.20;;;;;;;;;;5010643;28;20263;-76
2021/12/20 01:18:14;;;;;;;33.87;14.43;;;;;;;;;;5011019;28;20176;-75
2021/12/20 01:20:41;;;;;;;35.30;13.97;;;;;;;;;;5011783;28;20210;-75
2021/12/20 01:23:07;;;;;;;32.47;15.27;;;;;;;;;;5011604;28;20175;-75
2021/12/20 01:25:32;;;;;;;30.33;14.90;;;;;;;;;;5010781;28;20179;-76
2021/12/20 01:27:57;;;;;;;28.97;14.33;;;;;;;;;;5010771;28;20179;-76
2021/12/20 01:30:24;;;;;;;27.30;13.17;;;;;;;;;;5010678;28;20258;-75
2021/12/20 01:32:50;;;;;;;28.03;12.87;;;;;;;;;;5010681;28;20226;-76
2021/12/20 01:35:15;;;;;;;33.27;14.77;;;;;;;;;;5012157;28;20246;-76
2021/12/20 01:37:41;;;;;;;23.70;12.60;;;;;;;;;;5011064;28;20171;-76
2021/12/20 01:40:08;;;;;;;28.93;14.13;;;;;;;;;;5011277;28;20214;-76
2021/12/20 01:42:36;;;;;;;30.40;14.50;;;;;;;;;;5020827;28;20195;-76
2021/12/20 01:45:03;;;;;;;30.70;14.90;;;;;;;;;;5034017;28;20182;-75
2021/12/20 01:47:31;;;;;;;30.53;15.47;;;;;;;;;;5033156;28;20182;-75
2021/12/20 01:50:03;;;;;;;24.23;11.33;;;;;;;;;;5050266;28;20174;-75
2021/12/20 01:52:39;;;;;;;27.57;12.27;;;;;;;;;;5051720;28;20215;-75
2021/12/20 01:55:04;;;;;;;33.30;14.37;;;;;;;;;;5033386;28;20227;-76
2021/12/20 01:57:30;;;;;;;30.03;13.70;;;;;;;;;;5031841;28;20175;-76
2021/12/20 01:59:55;;;;;;;31.10;14.20;;;;;;;;;;5051275;28;20173;-76
2021/12/20 02:02:22;;;;;;;28.23;14.37;;;;;;;;;;5029225;28;20182;-75
2021/12/20 02:04:50;;;;;;;31.53;13.73;;;;;;;;;;5031951;28;20205;-75
2021/12/20 02:07:34;;;;;;;24.20;12.90;;;;;;;;;;5034490;28;20189;-75
2021/12/20 02:10:00;;;;;;;22.17;12.53;;;;;;;;;;5033748;28;20185;-76
2021/12/20 02:12:25;;;;;;;24.87;13.03;;;;;;;;;;5033146;28;20186;-76
2021/12/20 02:14:50;;;;;;;25.20;12.63;;;;;;;;;;5035567;28;20232;-75
2021/12/20 02:17:15;;;;;;;22.00;12.07;;;;;;;;;;5033509;28;20166;-75
2021/12/20 02:19:40;;;;;;;27.60;12.77;;;;;;;;;;5050471;28;20174;-75
2021/12/20 02:22:06;;;;;;;22.43;12.37;;;;;;;;;;5034117;28;20232;-75
2021/12/20 02:24:31;;;;;;;24.63;11.70;;;;;;;;;;5032568;28;20182;-75
2021/12/20 02:26:57;;;;;;;27.10;12.83;;;;;;;;;;5032230;28;20177;-75
2021/12/20 02:29:38;;;;;;;24.90;13.10;;;;;;;;;;5030066;28;20190;-75
2021/12/20 02:37:31;;;;;;;23.63;12.30;;;;;;;;;;5049313;28;20188;-75
2021/12/20 02:39:56;;;;;;;23.00;11.47;;;;;;;;;;5031478;28;20205;-76
2021/12/20 02:42:27;;;;;;;21.20;9.83;;;;;;;;;;5032266;28;20198;-75
2021/12/20 02:45:06;;;;;;;17.80;8.30;;;;;;;;;;5034193;28;20193;-75
2021/12/20 02:47:31;;;;;;;17.07;8.70;;;;;;;;;;5032785;28;20173;-75
2021/12/20 02:49:57;;;;;;;15.60;7.93;;;;;;;;;;5030076;28;20188;-75
2021/12/20 02:52:22;;;;;;;15.43;7.73;;;;;;;;;;5028392;28;20188;-75
2021/12/20 02:54:47;;;;;;;17.23;7.53;;;;;;;;;;5048882;28;20193;-75
2021/12/20 02:57:13;;;;;;;16.30;7.30;;;;;;;;;;5050446;28;20225;-75
2021/12/20 02:59:38;;;;;;;14.47;7.27;;;;;;;;;;5027019;28;20200;-76
2021/12/20 03:02:07;;;;;;;12.10;6.77;;;;;;;;;;5028228;28;20180;-76
2021/12/20 03:04:33;;;;;;;15.90;7.80;;;;;;;;;;5031254;28;20182;-75
2021/12/20 03:07:00;;;;;;;10.80;6.40;;;;;;;;;;5030865;28;20185;-76
2021/12/20 03:09:29;;;;;;;10.53;6.73;;;;;;;;;;5055012;28;20178;-75
2021/12/20 03:11:57;;;;;;;10.80;6.03;;;;;;;;;;5033166;28;20262;-75
2021/12/20 03:14:32;;;;;;;12.07;6.77;;;;;;;;;;5031203;28;20210;-75
2021/12/20 03:16:58;;;;;;;12.23;6.70;;;;;;;;;;5035030;28;20170;-75
2021/12/20 03:19:24;;;;;;;9.50;5.77;;;;;;;;;;5032843;28;20178;-75
2021/12/20 03:21:49;;;;;;;9.50;5.70;;;;;;;;;;5032271;28;20182;-75
2021/12/20 03:24:14;;;;;;;13.27;6.83;;;;;;;;;;5031785;28;20262;-75
2021/12/20 03:26:39;;;;;;;11.03;6.63;;;;;;;;;;5032848;28;20185;-75
2021/12/20 03:29:05;;;;;;;11.33;6.17;;;;;;;;;;5031924;28;20210;-75
2021/12/20 03:31:31;;;;;;;9.63;5.33;;;;;;;;;;5032066;28;20458;-76
2021/12/20 03:33:56;;;;;;;6.27;4.07;;;;;;;;;;5036048;28;20174;-75
2021/12/20 03:36:21;;;;;;;7.87;4.33;;;;;;;;;;5035495;28;20206;-75
2021/12/20 03:38:46;;;;;;;8.47;4.93;;;;;;;;;;5032022;28;20170;-75
2021/12/20 03:41:12;;;;;;;7.63;4.60;;;;;;;;;;5032870;28;20178;-75
2021/12/20 03:43:37;;;;;;;8.17;3.83;;;;;;;;;;5017893;28;20241;-75
2021/12/20 03:46:03;;;;;;;6.37;3.90;;;;;;;;;;5010070;28;20172;-75
2021/12/20 03:48:28;;;;;;;10.20;4.50;;;;;;;;;;5007166;28;20217;-76
2021/12/20 03:50:54;;;;;;;8.07;3.87;;;;;;;;;;5009555;28;20234;-75
2021/12/20 03:53:20;;;;;;;9.03;5.60;;;;;;;;;;5006639;28;20191;-75
2021/12/20 03:55:45;;;;;;;7.83;5.20;;;;;;;;;;5008606;28;20195;-75
2021/12/20 03:58:10;;;;;;;9.30;4.53;;;;;;;;;;5009100;28;20206;-76
2021/12/20 04:00:35;;;;;;;9.07;5.20;;;;;;;;;;5008677;28;20175;-75
2021/12/20 04:03:09;;;;;;;6.87;3.93;;;;;;;;;;5006829;28;20265;-75
2021/12/20 04:05:37;;;;;;;7.07;4.47;;;;;;;;;;5009682;28;20190;-75
2021/12/20 04:08:02;;;;;;;9.17;4.83;;;;;;;;;;5005993;28;20306;-75
2021/12/20 04:10:27;;;;;;;7.10;4.20;;;;;;;;;;5006855;28;20246;-75
2021/12/20 04:12:52;;;;;;;7.00;4.33;;;;;;;;;;5008845;28;20235;-75
2021/12/20 04:15:18;;;;;;;5.83;3.53;;;;;;;;;;5007720;28;20207;-75
2021/12/20 04:17:43;;;;;;;6.47;4.17;;;;;;;;;;5008634;28;20185;-75
2021/12/20 04:20:09;;;;;;;5.07;3.40;;;;;;;;;;5008174;28;20213;-75
2021/12/20 04:22:34;;;;;;;5.33;3.27;;;;;;;;;;5009142;28;20183;-76
2021/12/20 04:24:59;;;;;;;7.07;3.50;;;;;;;;;;5009624;28;20233;-75
2021/12/20 04:27:24;;;;;;;6.33;3.90;;;;;;;;;;5010929;28;20186;-76
2021/12/20 04:29:49;;;;;;;8.10;4.67;;;;;;;;;;5012229;28;20191;-75
2021/12/20 04:32:15;;;;;;;8.63;5.97;;;;;;;;;;5011816;28;20584;-75
2021/12/20 04:34:40;;;;;;;9.53;5.90;;;;;;;;;;5013894;28;20278;-75
2021/12/20 04:37:07;;;;;;;11.47;5.40;;;;;;;;;;5013086;28;20178;-75
2021/12/20 04:39:33;;;;;;;8.50;5.03;;;;;;;;;;5012657;28;20178;-75
2021/12/20 04:42:00;;;;;;;7.67;4.90;;;;;;;;;;5011859;28;20186;-76
2021/12/20 04:44:25;;;;;;;7.37;4.40;;;;;;;;;;5012456;28;20238;-75
2021/12/20 04:46:50;;;;;;;6.63;5.07;;;;;;;;;;5012505;28;20207;-75
2021/12/20 04:49:16;;;;;;;8.67;4.70;;;;;;;;;;5011443;28;20175;-75
2021/12/20 04:51:42;;;;;;;6.50;4.10;;;;;;;;;;5012188;28;20274;-75
2021/12/20 04:54:07;;;;;;;7.83;3.80;;;;;;;;;;5011258;28;20175;-75
2021/12/20 04:56:32;;;;;;;9.30;4.37;;;;;;;;;;5009206;28;20208;-75
2021/12/20 04:58:57;;;;;;;9.17;4.10;;;;;;;;;;5011827;28;20208;-75
2021/12/20 05:01:23;;;;;;;9.27;5.17;;;;;;;;;;5010670;28;20248;-75
2021/12/20 05:03:48;;;;;;;7.87;4.37;;;;;;;;;;5011541;28;20385;-75
2021/12/20 05:06:13;;;;;;;8.80;5.83;;;;;;;;;;5011354;28;20179;-75
2021/12/20 05:08:47;;;;;;;8.77;5.07;;;;;;;;;;5012418;28;20180;-75
2021/12/20 05:11:13;;;;;;;7.43;4.83;;;;;;;;;;5012255;28;20190;-75
2021/12/20 05:13:38;;;;;;;8.77;5.53;;;;;;;;;;5011178;28;20176;-75
2021/12/20 05:16:03;;;;;;;7.57;4.60;;;;;;;;;;5013115;28;20207;-75
2021/12/20 05:18:28;;;;;;;9.90;6.03;;;;;;;;;;5012436;28;20180;-75
2021/12/20 05:20:54;;;;;;;11.43;6.23;;;;;;;;;;5012236;28;20274;-75
2021/12/20 05:23:19;;;;;;;8.63;5.43;;;;;;;;;;5009870;28;20191;-75
2021/12/20 05:25:44;;;;;;;8.50;5.07;;;;;;;;;;5012302;28;20190;-75
2021/12/20 05:28:09;;;;;;;9.97;6.13;;;;;;;;;;5011230;28;20268;-75
2021/12/20 05:30:35;;;;;;;9.07;5.47;;;;;;;;;;5009519;28;20594;-75
2021/12/20 05:33:01;;;;;;;12.30;8.20;;;;;;;;;;5011750;28;20241;-76
2021/12/20 05:35:27;;;;;;;11.30;6.07;;;;;;;;;;5013069;28;20265;-75
2021/12/20 05:37:52;;;;;;;10.83;6.77;;;;;;;;;;5010946;28;20184;-75
2021/12/20 05:40:18;;;;;;;11.43;6.33;;;;;;;;;;5010875;28;20167;-75
2021/12/20 05:42:45;;;;;;;9.93;5.23;;;;;;;;;;5016814;28;20288;-75
2021/12/20 05:45:10;;;;;;;12.70;6.53;;;;;;;;;;5034301;28;20177;-75
2021/12/20 05:47:36;;;;;;;8.03;4.67;;;;;;;;;;5034257;28;20227;-75
2021/12/20 05:50:02;;;;;;;10.30;5.90;;;;;;;;;;5034560;28;20182;-75
2021/12/20 05:52:27;;;;;;;10.60;6.73;;;;;;;;;;5033806;28;20255;-76
2021/12/20 05:54:52;;;;;;;10.40;6.90;;;;;;;;;;5034427;28;20284;-75
2021/12/20 05:57:20;;;;;;;10.33;5.90;;;;;;;;;;5032628;28;20224;-76
2021/12/20 05:59:45;;;;;;;9.83;5.60;;;;;;;;;;5033399;28;20208;-77
2021/12/20 06:02:10;;;;;;;11.63;7.17;;;;;;;;;;5033310;28;20229;-78
2021/12/20 06:04:36;;;;;;;12.63;7.27;;;;;;;;;;5034582;28;20189;-78
2021/12/20 06:07:01;;;;;;;11.23;6.47;;;;;;;;;;5039101;28;20185;-77
2021/12/20 06:09:27;;;;;;;12.47;6.97;;;;;;;;;;5037030;28;20189;-77
2021/12/20 06:11:54;;;;;;;10.17;6.07;;;;;;;;;;5032335;28;20174;-78
2021/12/20 06:14:19;;;;;;;10.47;7.17;;;;;;;;;;5026899;28;20189;-78
2021/12/20 06:16:44;;;;;;;10.57;7.13;;;;;;;;;;5040029;28;20186;-78
2021/12/20 06:19:09;;;;;;;10.73;6.50;;;;;;;;;;5034591;28;20268;-77
2021/12/20 06:21:35;;;;;;;9.83;5.40;;;;;;;;;;5033042;28;20175;-77
2021/12/20 06:24:00;;;;;;;10.67;6.27;;;;;;;;;;5033902;28;20176;-77
2021/12/20 06:26:25;;;;;;;10.47;5.37;;;;;;;;;;5038217;28;20209;-77
2021/12/20 06:28:51;;;;;;;8.50;4.83;;;;;;;;;;5029270;28;20178;-78
2021/12/20 06:31:17;;;;;;;8.30;4.97;;;;;;;;;;5027872;28;20182;-77
2021/12/20 06:33:42;;;;;;;8.67;5.63;;;;;;;;;;5031650;28;20186;-77
2021/12/20 06:36:07;;;;;;;8.53;4.93;;;;;;;;;;5032820;28;20271;-77
2021/12/20 06:38:34;;;;;;;7.30;4.50;;;;;;;;;;5030315;28;20174;-77
2021/12/20 06:40:59;;;;;;;7.33;4.40;;;;;;;;;;5025068;28;20188;-78
2021/12/20 06:43:25;;;;;;;6.43;4.50;;;;;;;;;;5018982;28;20227;-78
2021/12/20 06:45:50;;;;;;;5.73;4.27;;;;;;;;;;5006620;28;20205;-77
2021/12/20 06:48:15;;;;;;;8.43;4.83;;;;;;;;;;5008934;28;20187;-78
2021/12/20 06:50:41;;;;;;;9.83;5.90;;;;;;;;;;5008391;28;20213;-78
2021/12/20 06:53:06;;;;;;;9.00;6.13;;;;;;;;;;5008010;28;20176;-78
2021/12/20 06:55:32;;;;;;;9.83;6.87;;;;;;;;;;5009790;28;20234;-77
2021/12/20 06:57:57;;;;;;;8.57;4.73;;;;;;;;;;5008507;28;20278;-78
2021/12/20 07:00:23;;;;;;;11.50;4.27;;;;;;;;;;5009032;28;20183;-77
2021/12/20 07:02:48;;;;;;;7.43;5.00;;;;;;;;;;5009150;28;20175;-78
2021/12/20 07:05:14;;;;;;;8.90;4.87;;;;;;;;;;5009397;28;20244;-77
2021/12/20 07:07:39;;;;;;;13.97;6.73;;;;;;;;;;5004201;28;20206;-77
2021/12/20 07:10:05;;;;;;;9.80;5.60;;;;;;;;;;5005616;28;20336;-77
2021/12/20 07:12:33;;;;;;;7.23;4.87;;;;;;;;;;5007361;28;20195;-77
2021/12/20 07:14:58;;;;;;;9.87;5.33;;;;;;;;;;5009189;28;20214;-78
2021/12/20 07:17:23;;;;;;;19.67;13.80;;;;;;;;;;5007611;28;20583;-78
2021/12/20 07:19:49;;;;;;;12.03;6.33;;;;;;;;;;5010519;28;20171;-77
2021/12/20 07:22:14;;;;;;;11.07;5.33;;;;;;;;;;5008819;28;20172;-77
2021/12/20 07:24:39;;;;;;;10.47;6.37;;;;;;;;;;5007027;28;20207;-77
2021/12/20 07:27:05;;;;;;;8.80;6.40;;;;;;;;;;5009024;28;20230;-77
2021/12/20 07:29:30;;;;;;;12.47;7.43;;;;;;;;;;5010227;28;20179;-78
2021/12/20 07:31:56;;;;;;;14.10;7.57;;;;;;;;;;5010355;28;20186;-77
2021/12/20 07:34:21;;;;;;;17.30;10.53;;;;;;;;;;5009450;28;20274;-77
2021/12/20 07:36:46;;;;;;;15.10;8.23;;;;;;;;;;5008907;28;20200;-78
2021/12/20 07:39:11;;;;;;;13.83;7.90;;;;;;;;;;5008320;28;20190;-77
2021/12/20 07:41:37;;;;;;;11.03;6.93;;;;;;;;;;5009440;28;20229;-77
2021/12/20 07:44:02;;;;;;;17.27;8.23;;;;;;;;;;5038637;28;20218;-77
2021/12/20 07:46:28;;;;;;;18.40;7.33;;;;;;;;;;5032822;28;20345;-77
2021/12/20 07:48:53;;;;;;;13.83;6.77;;;;;;;;;;5032442;28;20205;-77
2021/12/20 07:51:18;;;;;;;15.77;7.40;;;;;;;;;;5035877;28;20227;-77
2021/12/20 07:53:44;;;;;;;15.77;7.53;;;;;;;;;;5044384;28;20589;-77
2021/12/20 07:56:09;;;;;;;13.60;6.90;;;;;;;;;;5032460;28;20198;-77
2021/12/20 07:58:34;;;;;;;14.90;7.53;;;;;;;;;;5030715;28;20200;-78
2021/12/20 08:01:01;;;;;;;16.50;7.70;;;;;;;;;;5031551;28;20177;-77
2021/12/20 08:03:27;;;;;;;12.10;6.77;;;;;;;;;;5034670;28;20194;-77
2021/12/20 08:05:52;;;;;;;10.90;6.30;;;;;;;;;;5032793;28;20218;-77
2021/12/20 08:08:17;;;;;;;13.73;8.13;;;;;;;;;;5029224;28;20198;-78
2021/12/20 08:10:42;;;;;;;16.60;7.43;;;;;;;;;;5031996;28;20178;-77
2021/12/20 08:13:09;;;;;;;14.10;7.10;;;;;;;;;;5035757;28;20222;-77
2021/12/20 08:15:34;;;;;;;12.83;7.17;;;;;;;;;;5032969;28;20265;-78
2021/12/20 08:17:59;;;;;;;15.83;7.77;;;;;;;;;;5029257;28;20265;-77
2021/12/20 08:20:25;;;;;;;14.20;9.03;;;;;;;;;;5031791;28;20170;-77
2021/12/20 08:22:50;;;;;;;14.07;8.17;;;;;;;;;;5035795;28;20401;-77
2021/12/20 08:25:16;;;;;;;18.73;9.20;;;;;;;;;;5032146;28;20186;-78
2021/12/20 08:27:42;;;;;;;12.67;7.37;;;;;;;;;;5045528;28;20552;-77
2021/12/20 08:30:08;;;;;;;17.03;8.83;;;;;;;;;;5049176;28;20207;-77
2021/12/20 08:32:33;;;;;;;16.67;9.53;;;;;;;;;;5031605;28;20225;-77
2021/12/20 08:34:58;;;;;;;15.17;7.03;;;;;;;;;;5031706;28;20196;-77
2021/12/20 08:37:24;;;;;;;17.33;9.53;;;;;;;;;;5031790;28;20200;-77
2021/12/20 08:39:50;;;;;;;20.83;9.27;;;;;;;;;;5048852;28;20178;-78
2021/12/20 08:42:15;;;;;;;16.17;9.50;;;;;;;;;;5029288;28;20198;-77
2021/12/20 08:44:40;;;;;;;15.53;8.27;;;;;;;;;;5009475;28;20238;-77
2021/12/20 08:47:06;;;;;;;18.63;9.10;;;;;;;;;;5005565;28;20251;-77
2021/12/20 08:49:31;;;;;;;16.03;8.57;;;;;;;;;;5001444;28;20220;-77
2021/12/20 08:51:57;;;;;;;18.63;9.33;;;;;;;;;;5006149;28;20214;-77
2021/12/20 08:54:27;;;;;;;19.53;9.93;;;;;;;;;;5005546;28;20175;-77
2021/12/20 08:56:53;;;;;;;19.23;9.43;;;;;;;;;;5008633;28;20191;-78
2021/12/20 08:59:18;;;;;;;20.03;11.03;;;;;;;;;;5008218;28;20251;-77
2021/12/20 09:01:43;;;;;;;17.33;10.40;;;;;;;;;;5008420;28;20253;-78
2021/12/20 09:04:09;;;;;;;16.83;9.10;;;;;;;;;;5008149;28;20190;-77
2021/12/20 09:06:38;;;;;;;25.23;12.03;;;;;;;;;;5008766;28;20186;-78
2021/12/20 09:09:04;;;;;;;20.70;10.90;;;;;;;;;;5006116;28;20179;-77
2021/12/20 09:11:29;;;;;;;24.83;13.20;;;;;;;;;;5009141;28;20338;-77
2021/12/20 09:13:54;;;;;;;27.53;12.27;;;;;;;;;;5011036;28;20210;-77
2021/12/20 09:16:20;;;;;;;21.83;11.23;;;;;;;;;;5010007;28;20211;-78
2021/12/20 09:18:45;;;;;;;21.90;10.33;;;;;;;;;;5010228;28;20179;-77
2021/12/20 09:21:11;;;;;;;28.43;13.60;;;;;;;;;;5007959;28;20193;-78
2021/12/20 09:23:37;;;;;;;26.03;11.50;;;;;;;;;;5011361;28;20206;-77
2021/12/20 09:26:03;;;;;;;23.90;10.63;;;;;;;;;;5012746;28;20187;-77
2021/12/20 09:28:28;;;;;;;22.80;11.63;;;;;;;;;;5011011;28;20192;-77
2021/12/20 09:30:54;;;;;;;15.93;9.80;;;;;;;;;;5011262;28;20217;-77
2021/12/20 09:33:19;;;;;;;19.20;9.37;;;;;;;;;;5011538;28;20183;-78
2021/12/20 09:35:44;;;;;;;21.77;10.17;;;;;;;;;;5010360;28;20226;-77
2021/12/20 09:38:11;;;;;;;21.40;10.87;;;;;;;;;;5010043;28;20175;-77
2021/12/20 09:40:40;;;;;;;16.77;9.43;;;;;;;;;;5011620;28;20188;-78
2021/12/20 09:43:07;;;;;;;17.40;9.70;;;;;;;;;;5011064;28;20335;-77
2021/12/20 09:45:32;;;;;;;18.87;9.10;;;;;;;;;;5010981;28;20175;-77
2021/12/20 09:47:58;;;;;;;29.60;26.27;;;;;;;;;;5012912;28;20180;-78
2021/12/20 09:50:23;;;;;;;17.50;9.07;;;;;;;;;;5012060;28;20271;-77
2021/12/20 09:52:49;;;;;;;17.03;9.10;;;;;;;;;;5011048;28;20183;-77
2021/12/20 09:55:15;;;;;;;16.40;8.57;;;;;;;;;;5010818;28;20261;-77
2021/12/20 09:57:41;;;;;;;17.30;8.90;;;;;;;;;;5010692;28;20222;-76
2021/12/20 10:00:08;;;;;;;15.33;7.53;;;;;;;;;;5009664;28;20183;-78
2021/12/20 10:02:33;;;;;;;12.80;7.30;;;;;;;;;;5011772;28;20186;-77
2021/12/20 10:04:59;;;;;;;20.00;10.17;;;;;;;;;;5011016;28;20354;-77
2021/12/20 10:07:25;;;;;;;18.57;9.23;;;;;;;;;;5012274;28;20183;-78
2021/12/20 10:09:51;;;;;;;17.10;9.33;;;;;;;;;;5008893;28;20305;-77
2021/12/20 10:12:24;;;;;;;20.97;10.00;;;;;;;;;;5010488;28;20275;-77
2021/12/20 10:15:10;;;;;;;15.30;8.03;;;;;;;;;;5009849;28;20443;-77
2021/12/20 10:17:54;;;;;;;13.97;8.47;;;;;;;;;;5010643;28;20184;-78
2021/12/20 10:20:20;;;;;;;15.03;8.47;;;;;;;;;;5002089;28;20237;-77
2021/12/20 10:22:45;;;;;;;16.47;8.13;;;;;;;;;;5010667;28;20182;-77
2021/12/20 10:25:24;;;;;;;15.47;7.40;;;;;;;;;;5010110;28;20217;-77
2021/12/20 10:27:50;;;;;;;15.73;8.27;;;;;;;;;;5007875;28;20191;-77
2021/12/20 10:30:20;;;;;;;13.67;7.50;;;;;;;;;;5010840;28;20222;-77
2021/12/20 10:32:46;;;;;;;17.10;9.70;;;;;;;;;;5010029;28;20191;-77
2021/12/20 10:35:27;;;;;;;17.27;8.47;;;;;;;;;;5010060;28;20265;-77
2021/12/20 10:37:52;;;;;;;14.93;7.70;;;;;;;;;;5006530;28;20357;-78
2021/12/20 10:40:18;;;;;;;14.10;7.27;;;;;;;;;;5010259;28;20274;-77
2021/12/20 10:42:43;;;;;;;15.33;8.23;;;;;;;;;;5015154;28;20234;-77
2021/12/20 10:45:13;;;;;;;16.27;8.97;;;;;;;;;;5031106;28;20192;-77
2021/12/20 10:47:39;;;;;;;15.70;9.07;;;;;;;;;;5034762;28;20190;-77
2021/12/20 10:50:23;;;;;;;17.10;8.90;;;;;;;;;;5034201;28;20258;-76
2021/12/20 10:52:49;;;;;;;17.27;9.30;;;;;;;;;;5031642;28;20400;-77
2021/12/20 10:55:33;;;;;;;15.73;8.83;;;;;;;;;;5032965;28;20248;-78
2021/12/20 10:58:14;;;;;;;15.53;7.40;;;;;;;;;;5033502;28;20182;-78
2021/12/20 11:00:39;;;;;;;12.23;7.43;;;;;;;;;;5029566;28;20201;-78
2021/12/20 11:11:12;;;;;;;13.30;7.60;;;;;;;;;;5049551;28;20227;-78
2021/12/20 11:13:38;;;;;;;19.67;9.00;;;;;;;;;;5036061;28;20186;-77
2021/12/20 11:16:24;;;;;;;19.70;9.63;;;;;;;;;;5041618;28;20232;-77
2021/12/20 11:19:07;;;;;;;14.30;8.73;;;;;;;;;;5031542;28;20235;-77
2021/12/20 11:21:33;;;;;;;16.60;9.70;;;;;;;;;;5040869;28;20178;-77
2021/12/20 11:24:02;;;;;;;15.67;8.63;;;;;;;;;;5026941;28;20182;-77
2021/12/20 11:26:27;;;;;;;9.50;6.10;;;;;;;;;;5049257;28;20241;-77
2021/12/20 11:28:54;;;;;;;18.47;8.50;;;;;;;;;;5035156;28;20258;-77
2021/12/20 11:31:19;;;;;;;14.97;7.63;;;;;;;;;;5036288;28;20178;-77
2021/12/20 11:33:44;;;;;;;16.43;8.60;;;;;;;;;;5036662;28;20182;-77
2021/12/20 11:36:09;;;;;;;13.10;7.43;;;;;;;;;;5029214;28;20230;-77
2021/12/20 11:38:34;;;;;;;13.00;7.70;;;;;;;;;;5035455;28;20203;-77
2021/12/20 11:41:00;;;;;;;14.27;8.67;;;;;;;;;;5032721;28;20184;-77
2021/12/20 11:43:26;;;;;;;12.43;8.07;;;;;;;;;;5032416;28;20229;-78
2021/12/20 11:45:52;;;;;;;14.30;7.73;;;;;;;;;;5034143;28;20277;-77
2021/12/20 11:48:20;;;;;;;17.03;9.03;;;;;;;;;;5032823;28;20178;-77
2021/12/20 11:50:45;;;;;;;12.93;7.23;;;;;;;;;;5031609;28;20213;-77
2021/12/20 11:53:12;;;;;;;13.63;8.27;;;;;;;;;;5033506;28;20263;-77
2021/12/20 11:55:43;;;;;;;16.63;8.13;;;;;;;;;;5034517;28;20255;-77
2021/12/20 11:58:19;;;;;;;15.63;8.33;;;;;;;;;;5033488;28;20182;-77
2021/12/20 12:00:48;;;;;;;14.53;8.87;;;;;;;;;;5032099;28;20265;-77
2021/12/20 12:03:14;;;;;;;12.63;8.43;;;;;;;;;;5032488;28;20305;-77
2021/12/20 12:05:49;;;;;;;15.37;8.67;;;;;;;;;;5031750;28;20280;-77
2021/12/20 12:08:25;;;;;;;15.63;9.03;;;;;;;;;;5052825;28;20189;-77
2021/12/20 12:10:52;;;;;;;17.27;8.50;;;;;;;;;;5032139;28;20211;-78
2021/12/20 12:13:18;;;;;;;17.00;8.40;;;;;;;;;;5035304;28;20185;-77
2021/12/20 12:16:02;;;;;;;15.80;8.80;;;;;;;;;;5030318;28;20197;-77
2021/12/20 12:18:43;;;;;;;12.13;8.97;;;;;;;;;;5033831;28;20278;-77
2021/12/20 12:21:28;;;;;;;17.90;9.30;;;;;;;;;;5034841;28;20178;-77
2021/12/20 12:23:54;;;;;;;16.33;9.67;;;;;;;;;;5049508;28;20263;-77
2021/12/20 12:26:28;;;;;;;16.67;11.20;;;;;;;;;;5035734;28;20215;-78
2021/12/20 12:28:55;;;;;;;16.93;10.17;;;;;;;;;;5025098;28;20271;-77
2021/12/20 12:31:20;;;;;;;18.20;9.67;;;;;;;;;;5033793;28;20174;-77
2021/12/20 12:33:46;;;;;;;14.93;9.33;;;;;;;;;;5049271;28;20193;-77
2021/12/20 12:36:25;;;;;;;17.00;9.80;;;;;;;;;;5030806;28;20198;-80
2021/12/20 12:38:52;;;;;;;18.63;10.87;;;;;;;;;;5029738;28;20184;-77
2021/12/20 12:41:22;;;;;;;14.97;9.27;;;;;;;;;;5033511;28;20170;-78
2021/12/20 12:43:53;;;;;;;15.17;8.13;;;;;;;;;;5017064;28;20246;-77
2021/12/20 12:46:39;;;;;;;14.93;9.07;;;;;;;;;;5017410;28;20178;-77
2021/12/20 12:49:23;;;;;;;14.80;9.07;;;;;;;;;;5004643;28;20179;-77
2021/12/20 12:51:56;;;;;;;13.87;8.17;;;;;;;;;;5010910;28;20191;-77
2021/12/20 12:54:34;;;;;;;19.13;10.17;;;;;;;;;;5012352;28;20222;-77
2021/12/20 12:57:08;;;;;;;16.43;9.83;;;;;;;;;;5015021;28;20183;-77
2021/12/20 12:59:35;;;;;;;17.23;10.63;;;;;;;;;;5014857;28;20258;-77
2021/12/20 13:02:10;;;;;;;19.77;10.70;;;;;;;;;;5015771;28;20162;-77
2021/12/20 13:04:45;;;;;;;16.10;9.90;;;;;;;;;;5016818;28;20174;-77
2021/12/20 13:07:11;;;;;;;19.70;9.10;;;;;;;;;;5011787;28;20175;-77
2021/12/20 13:09:43;;;;;;;18.10;10.13;;;;;;;;;;5008449;28;20176;-77
2021/12/20 13:12:09;;;;;;;14.53;9.33;;;;;;;;;;5012340;28;20306;-77
2021/12/20 13:14:49;;;;;;;18.80;10.47;;;;;;;;;;5014773;28;20186;-77
2021/12/20 13:17:27;;;;;;;17.30;9.87;;;;;;;;;;5004823;28;20210;-77
2021/12/20 13:20:05;;;;;;;20.33;11.07;;;;;;;;;;5011807;28;20349;-77
2021/12/20 13:22:30;;;;;;;16.70;9.73;;;;;;;;;;5011483;28;20225;-77
2021/12/20 13:24:55;;;;;;;18.33;10.30;;;;;;;;;;5020407;28;20171;-77
2021/12/20 13:27:28;;;;;;;15.40;9.27;;;;;;;;;;5007686;28;20183;-77
2021/12/20 13:29:53;;;;;;;17.33;10.27;;;;;;;;;;5006592;28;20183;-77
2021/12/20 13:32:18;;;;;;;19.80;10.87;;;;;;;;;;5006829;28;20194;-77
2021/12/20 13:34:44;;;;;;;25.00;14.47;;;;;;;;;;5015817;28;20179;-77
2021/12/20 13:37:11;;;;;;;29.17;14.07;;;;;;;;;;5014374;28;20179;-77
2021/12/20 13:39:36;;;;;;;28.97;14.30;;;;;;;;;;5010001;28;20172;-77
2021/12/20 13:42:06;;;;;;;29.70;14.57;;;;;;;;;;5014413;28;20174;-77
2021/12/20 13:44:31;;;;;;;35.53;16.70;;;;;;;;;;5047144;28;20316;-78
2021/12/20 13:47:01;;;;;;;51.33;24.30;;;;;;;;;;5035136;28;20292;-77
2021/12/20 13:49:26;;;;;;;43.40;19.50;;;;;;;;;;5038301;28;20178;-77
2021/12/20 13:51:53;;;;;;;34.17;14.97;;;;;;;;;;5033658;28;20190;-77
2021/12/20 13:54:28;;;;;;;24.03;12.27;;;;;;;;;;5040480;28;20178;-77
2021/12/20 13:56:53;;;;;;;28.27;11.53;;;;;;;;;;5040140;28;20470;-77
2021/12/20 13:59:30;;;;;;;22.13;11.60;;;;;;;;;;5031838;28;20273;-77
2021/12/20 14:01:57;;;;;;;16.80;9.20;;;;;;;;;;5051066;28;20185;-77
2021/12/20 14:04:42;;;;;;;19.23;10.43;;;;;;;;;;5032710;28;20474;-77
2021/12/20 14:07:25;;;;;;;21.70;10.13;;;;;;;;;;5034107;28;20174;-77
2021/12/20 14:10:01;;;;;;;17.83;11.33;;;;;;;;;;5036470;28;20186;-77
2021/12/20 14:12:32;;;;;;;16.63;10.60;;;;;;;;;;5050264;28;20186;-77
2021/12/20 14:14:59;;;;;;;19.03;10.60;;;;;;;;;;5036381;28;20197;-77
2021/12/20 14:17:25;;;;;;;17.60;10.27;;;;;;;;;;5048288;28;20231;-77
2021/12/20 14:20:04;;;;;;;16.27;8.83;;;;;;;;;;5036822;28;20238;-77
2021/12/20 14:22:30;;;;;;;18.47;9.00;;;;;;;;;;5032189;28;20181;-77
2021/12/20 14:25:15;;;;;;;18.80;11.03;;;;;;;;;;5049453;28;20178;-76
2021/12/20 14:27:41;;;;;;;19.30;9.60;;;;;;;;;;5026361;28;20190;-77
2021/12/20 14:30:26;;;;;;;16.20;10.63;;;;;;;;;;5041342;28;20181;-77
2021/12/20 14:32:51;;;;;;;19.13;9.07;;;;;;;;;;5028306;28;20281;-77
2021/12/20 14:35:31;;;;;;;15.47;8.70;;;;;;;;;;5028465;28;20307;-77
2021/12/20 14:37:57;;;;;;;18.33;9.40;;;;;;;;;;5039733;28;20459;-77
2021/12/20 14:40:38;;;;;;;17.40;9.67;;;;;;;;;;5051534;28;20170;-77
2021/12/20 14:43:06;;;;;;;16.20;10.03;;;;;;;;;;5042077;28;20276;-74
2021/12/20 14:45:31;;;;;;;14.27;9.33;;;;;;;;;;5045114;28;20189;-75